Vila do Carmo do Tocantins, Brazil
Current Conditions -  °F | °C
As of 4:00 PM on Friday 28 Nov 2014 (Local Time) from SBTU Reporting Station
Broken Clouds Broken Clouds  
Wind Chill: 86°   Ceiling: 2300
Heat Index: 93°   Visibility: 6mi
Dew Point: 73°   Wind: 0mph
Humidity: 66%   Direction: NA
Pressure: 29.88"   Gusts: NA
Location:  2.45°S, 49.44°W
Report Text: SBTU 281900Z 00000KT 9999 BKN023 FEW025TCU 30/23 Q1012
Loading
Personal Weather Stations






























Interactive Weather Map New forecast layout! Learn more

10-Day Weather Forecast

Advertisements
Track Severe Weather on mobile